Home > Products > Valid Products > TAF

000
FTUS44 KEWX 220800 AAA
TAFSAT
TAF AMD
KSAT 220815Z 2208/2312 19005KT 6SM -DZ BR OVC007
      TEMPO 2208/2210 2SM -DZ BR OVC004
     FM221000 21005KT 2SM -DZ BR OVC004
     FM221600 25008KT 6SM BR BKN012
     FM221800 27009KT P6SM FEW015 BKN250
     FM230000 VRB04KT P6SM BKN250=



000
FTUS44 KEWX 220800 AAA
TAFSAT
TAF AMD
KSAT 220815Z 2208/2312 19005KT 6SM -DZ BR OVC007
      TEMPO 2208/2210 2SM -DZ BR OVC004
     FM221000 21005KT 2SM -DZ BR OVC004
     FM221600 25008KT 6SM BR BKN012
     FM221800 27009KT P6SM FEW015 BKN250
     FM230000 VRB04KT P6SM BKN250=



000
FTUS44 KEWX 220500 CCA
TAFDRT
TAF COR
KDRT 220540Z 2206/2306 11006KT P6SM BKN250
      TEMPO 2207/2209 2SM BR BKN005
     FM220900 11004KT 2SM BR BKN005
      TEMPO 2209/2212 1/2SM FG BKN003
     FM221400 27004KT 4SM BR BKN010
     FM221600 31006KT P6SM BKN250
     FM230000 VRB04KT P6SM BKN250=



000
FTUS44 KEWX 220500
TAFAUS
TAF
KAUS 220539Z 2206/2312 18007KT P6SM SCT008 OVC020
      TEMPO 2206/2209 6SM -DZ BR BKN008
     FM220900 19007KT 5SM -DZ BR OVC007
     FM221600 22010KT P6SM BKN015
     FM221800 25011KT P6SM BKN250
     FM230000 36004KT P6SM BKN250=



000
FTUS44 KEWX 220500
TAFDRT
TAF
KDRT 220539Z 2206/2306 11006KT P6SM BKN250
      TEMPO 2206/2208 2SM BR BKN005
     FM220800 11004KT 2SM BR BKN005
      TEMPO 2208/2212 1/2SM FG BKN003
     FM221400 27004KT 4SM BR BKN010
     FM221600 31006KT P6SM BKN250
     FM230000 VRB04KT P6SM BKN250=



000
FTUS44 KEWX 220500
TAFSAT
TAF
KSAT 220539Z 2206/2312 19005KT 6SM -DZ BR OVC007
     FM221000 21005KT 2SM -DZ BR OVC004
     FM221600 25008KT 6SM BR BKN012
     FM221800 27009KT P6SM FEW015 BKN250
     FM230000 VRB04KT P6SM BKN250=



000
FTUS44 KEWX 220400 AAA
TAFAUS
TAF AMD
KAUS 220427Z 2204/2306 18007KT P6SM BKN008 OVC022
     FM220800 19007KT 5SM BR OVC008
      TEMPO 2211/2215 2SM -DZ BR BKN004
     FM221600 22010KT P6SM BKN015
     FM221800 25011KT P6SM BKN250
     FM230000 36004KT P6SM BKN250=



000
FTUS44 KEWX 220400 AAA
TAFSAT
TAF AMD
KSAT 220425Z 2204/2306 21005KT P6SM OVC009
     FM220600 19005KT 5SM BR OVC007
     FM220900 21005KT 1SM -DZ BR OVC004
     FM221600 24008KT 5SM BR OVC008
     FM221800 26009KT P6SM FEW015 SCT250
     FM230000 VRB03KT P6SM BKN250=



000
FTUS44 KEWX 212300
TAFDRT
TAF
KDRT 212338Z 2200/2224 12005KT P6SM SCT015
     FM221100 VRB04KT 4SM BR BKN006
     FM221700 29006KT P6SM SCT250=



000
FTUS44 KEWX 212300
TAFAUS
TAF
KAUS 212338Z 2200/2306 18007KT P6SM OVC015
     FM220900 19007KT 5SM BR OVC008
      TEMPO 2211/2215 2SM -DZ BR BKN004
     FM221600 22010KT P6SM BKN015
     FM221800 25011KT P6SM BKN250
     FM230000 36004KT P6SM BKN250=



000
FTUS44 KEWX 212300
TAFSAT
TAF
KSAT 212338Z 2200/2306 20007KT P6SM OVC010
     FM220600 19005KT 5SM BR OVC008
     FM220900 21005KT 1SM -DZ BR OVC004
     FM221600 24008KT 5SM BR OVC008
     FM221800 26009KT P6SM FEW015 SCT250
     FM230000 VRB03KT P6SM BKN250=



000
FTUS44 KEWX 212100 AAB
TAFDRT
TAF AMD
KDRT 212154Z 2122/2218 15008KT P6SM BKN015
     FM220000 14009KT P6SM FEW040
     FM221100 12005KT P6SM BKN015
     FM221700 29005KT P6SM SCT250=



000
FTUS44 KEWX 212100 AAB
TAFDRT
TAF AMD
KDRT 212154Z 2122/2218 15008KT P6SM BKN015
     FM220000 14009KT P6SM FEW040
     FM221100 12005KT P6SM BKN015
     FM221700 29005KT P6SM SCT250=



000
FTUS44 KEWX 212100 AAA
TAFSAT
TAF AMD
KSAT 212153Z 2122/2224 18007KT P6SM OVC010
     FM220600 20005KT 5SM BR OVC008
     FM221000 19007KT 3SM BR OVC007
      TEMPO 2210/2214 1SM BR
     FM221700 21010KT P6SM BKN015
     FM222100 19010KT P6SM SCT250=



000
FTUS44 KEWX 212100 AAA
TAFSAT
TAF AMD
KSAT 212153Z 2122/2224 18007KT P6SM OVC010
     FM220600 20005KT 5SM BR OVC008
     FM221000 19007KT 3SM BR OVC007
      TEMPO 2210/2214 1SM BR
     FM221700 21010KT P6SM BKN015
     FM222100 19010KT P6SM SCT250=



000
FTUS44 KEWX 212100 AAA
TAFAUS
TAF AMD
KAUS 212152Z 2122/2224 17007KT P6SM OVC018
     FM220500 19005KT 6SM BR OVC012
     FM221000 19007KT 5SM BR BKN008
     FM221600 21010KT P6SM BKN015
     FM222100 19010KT P6SM SCT250=



000
FTUS44 KEWX 212100 AAA
TAFAUS
TAF AMD
KAUS 212152Z 2122/2224 17007KT P6SM OVC018
     FM220500 19005KT 6SM BR OVC012
     FM221000 19007KT 5SM BR BKN008
     FM221600 21010KT P6SM BKN015
     FM222100 19010KT P6SM SCT250=



000
FTUS44 KEWX 212000 AAA
TAFDRT
TAF AMD
KDRT 212037Z 2121/2218 15008KT P6SM BKN015
     FM212200 14009KT P6SM FEW040
     FM221100 12005KT P6SM BKN015
     FM221700 29005KT P6SM SCT250=



000
FTUS44 KEWX 211700
TAFAUS
TAF
KAUS 211720Z 2118/2224 17007KT P6SM OVC018
     FM212200 18009KT P6SM BKN025
     FM220500 19005KT 6SM BR OVC012
     FM221200 19007KT 5SM BR BKN008
     FM221600 21010KT P6SM BKN015
     FM222100 19010KT P6SM SCT250=



000
FTUS44 KEWX 211700
TAFDRT
TAF
KDRT 211720Z 2118/2218 15007KT P6SM OVC009
     FM211900 15008KT P6SM BKN015
     FM212100 14009KT P6SM FEW040
     FM221100 12005KT P6SM BKN015
     FM221700 29005KT P6SM SCT250=



000
FTUS44 KEWX 211700
TAFSAT
TAF
KSAT 211720Z 2118/2224 18007KT P6SM OVC015
     FM212200 18008KT P6SM BKN025
     FM220500 19005KT 4SM BR OVC012
     FM221000 19007KT 2SM BR BKN007
     FM221700 21010KT P6SM BKN015
     FM222100 19010KT P6SM SCT250=



000
FTUS44 KEWX 211400 AAA
TAFSAT
TAF AMD
KSAT 211413Z 2114/2218 14003KT P6SM SCT008 OVC012
      TEMPO 2114/2116 3SM BR BKN008
     FM211600 19005KT P6SM OVC015
     FM211800 20006KT P6SM BKN025
     FM220700 19006KT 6SM BR OVC012
     FM221100 21005KT 4SM BR BKN007 OVC012
     FM221700 21010KT P6SM BKN025=



000
FTUS44 KEWX 211400 AAA
TAFSAT
TAF AMD
KSAT 211413Z 2114/2218 14003KT P6SM SCT008 OVC012
      TEMPO 2114/2116 3SM BR BKN008
     FM211600 19005KT P6SM OVC015
     FM211800 20006KT P6SM BKN025
     FM220700 19006KT 6SM BR OVC012
     FM221100 21005KT 4SM BR BKN007 OVC012
     FM221700 21010KT P6SM BKN025=



000
FTUS44 KEWX 211100
TAFDRT
TAF
KDRT 211121Z 2112/2212 12005KT P6SM OVC006
     FM211700 15007KT P6SM OVC015
     FM211900 15008KT P6SM SCT025
     FM212200 14009KT P6SM SKC
     FM220700 11005KT P6SM BKN015=



000
FTUS44 KEWX 211100
TAFAUS
TAF
KAUS 211121Z 2112/2218 13002KT P6SM OVC015
     FM211600 19005KT P6SM OVC015
     FM212000 19007KT P6SM BKN025
     FM220800 19005KT 6SM BR OVC012
     FM221700 21010KT P6SM BKN025=



000
FTUS44 KEWX 211100
TAFSAT
TAF
KSAT 211121Z 2112/2218 14003KT P6SM SCT008 OVC012
     FM211600 19005KT P6SM OVC015
     FM211800 20006KT P6SM BKN025
     FM220700 19006KT 6SM BR OVC012
     FM221100 21005KT 4SM BR BKN007 OVC012
     FM221700 21010KT P6SM BKN025=



000
FTUS44 KEWX 210900 AAA
TAFDRT
TAF AMD
KDRT 210908Z 2109/2206 12008KT P6SM OVC009
     FM211200 12005KT 5SM BR OVC005
     FM211700 15007KT P6SM OVC015
     FM211900 15008KT P6SM SCT025=



000
FTUS44 KEWX 210900 AAA
TAFAUS
TAF AMD
KAUS 210907Z 2109/2212 VRB02KT P6SM OVC020
     FM211100 VRB02KT 4SM BR OVC012
     FM211600 19005KT P6SM OVC015
     FM212000 19007KT P6SM BKN025
     FM220800 19005KT 6SM BR OVC007=



000
FTUS44 KEWX 210700 AAA
TAFSAT
TAF AMD
KSAT 210738Z 2108/2212 10004KT P6SM OVC018
     FM210900 VRB03KT P6SM OVC015
     FM211200 VRB03KT 6SM BR OVC007
     FM211600 19005KT P6SM OVC015
     FM212000 20006KT P6SM BKN025
     FM220700 19006KT 6SM BR OVC007=



000
FTUS44 KEWX 210500 CCA
TAFDRT
TAF COR
KDRT 210538Z 2106/2206 12011KT P6SM BKN010 OVC022
     FM210800 12008KT P6SM OVC007
     FM211200 12005KT 3SM BR OVC004
     FM211700 15007KT P6SM OVC015
     FM211900 15008KT P6SM SCT025=



000
FTUS44 KEWX 210500
TAFSAT
TAF
KSAT 210531Z 2106/2212 10004KT P6SM OVC023
     FM210900 VRB03KT P6SM OVC015
     FM211200 VRB03KT 6SM BR OVC007
     FM211600 19005KT P6SM OVC015
     FM212000 20006KT P6SM BKN025
     FM220700 19006KT 6SM BR OVC007=



000
FTUS44 KEWX 210500
TAFAUS
TAF
KAUS 210531Z 2106/2212 11003KT 6SM BR OVC025
     FM210900 VRB02KT P6SM OVC015
     FM211100 VRB02KT 2SM BR OVC006
     FM211700 19005KT P6SM OVC015
     FM212000 19007KT P6SM BKN025
     FM220800 19005KT 6SM BR OVC007=



000
FTUS44 KEWX 210500
TAFDRT
TAF
KDRT 210531Z 2106/2206 12011KT P6SM OVC022
     FM210800 12008KT P6SM OVC013
     FM211200 12005KT 3SM BR OVC004
     FM211700 15007KT P6SM OVC015
     FM211900 15008KT P6SM SCT025=



000
FTUS44 KEWX 210200 AAA
TAFDRT
TAF AMD
KDRT 210203Z 2102/2124 12008KT P6SM OVC018
     FM211200 11005KT P6SM OVC008
     FM211600 14007KT P6SM OVC015
     FM211900 15008KT P6SM SCT025=



000
FTUS44 KEWX 210200 AAA
TAFSAT
TAF AMD
KSAT 210202Z 2102/2206 08005KT P6SM OVC024
     FM210600 09003KT P6SM OVC015
     FM210900 VRB03KT P6SM OVC007
     FM211700 19005KT P6SM OVC015
     FM212000 20006KT P6SM BKN025=



000
FTUS44 KEWX 202300
TAFSAT
TAF
KSAT 202335Z 2100/2206 08006KT P6SM OVC023
     FM210200 09003KT P6SM OVC015
     FM210800 VRB03KT P6SM OVC007
     FM211700 19005KT P6SM OVC015
     FM212000 20006KT P6SM BKN025=



000
FTUS44 KEWX 202300
TAFDRT
TAF
KDRT 202335Z 2100/2124 13010KT P6SM OVC025
     FM210800 11006KT P6SM OVC012
     FM211200 11005KT P6SM OVC008
     FM211600 14007KT P6SM OVC015
     FM211900 15008KT P6SM SCT025=



000
FTUS44 KEWX 202300
TAFAUS
TAF
KAUS 202335Z 2100/2206 05004KT P6SM OVC023
     FM210600 05003KT P6SM OVC015
     FM211000 VRB02KT 6SM BR OVC007
     FM211700 19005KT P6SM OVC015
     FM212000 19007KT P6SM BKN025=



000
FTUS44 KEWX 201900 AAA
TAFSAT
TAF AMD
KSAT 201929Z 2019/2124 02010KT P6SM FEW020 SCT080
     FM210100 VRB03KT P6SM OVC015
     FM211100 25003KT 4SM BR OVC007
     FM211500 10003KT P6SM OVC015
     FM211700 16004KT P6SM BKN025
     FM212000 20006KT P6SM SCT040 SCT250=



000
FTUS44 KEWX 201700 RRA
TAFSAT
TAF
KSAT 201743Z 2018/2124 04007KT P6SM OVC015
     FM202000 04007KT P6SM OVC025
     FM210100 VRB03KT P6SM OVC015
     FM211100 25003KT 4SM BR OVC007
     FM211500 10003KT P6SM OVC015
     FM211700 16004KT P6SM BKN025
     FM212000 20006KT P6SM SCT040 SCT250=



000
FTUS44 KEWX 201700 RRA
TAFDRT
TAF
KDRT 201743Z 2018/2118 13009KT P6SM OVC010
     FM201900 14009KT P6SM BKN015
     FM202100 14008KT P6SM BKN025
     FM210100 11006KT P6SM BKN035
     FM210500 11006KT P6SM OVC025
     FM211000 11006KT P6SM OVC010
     FM211600 14008KT P6SM OVC015=



000
FTUS44 KEWX 201700 RRA
TAFAUS
TAF
KAUS 201743Z 2018/2124 02007KT P6SM OVC020
     FM210600 05003KT P6SM OVC015
     FM211100 VRB02KT 4SM BR OVC007
     FM211500 10003KT P6SM OVC015
     FM211800 18006KT P6SM BKN025
     FM212000 18006KT P6SM SCT040 SCT250=



000
FTUS44 KEWX 201500 AAA
TAFDRT
TAF AMD
KDRT 201509Z 2015/2112 14008KT P6SM BKN010
     FM201700 12005KT P6SM BKN025 OVC040
     FM202000 15008KT P6SM OVC050
     FM210500 11006KT P6SM OVC025
     FM210900 11005KT P6SM OVC015=



000
FTUS44 KEWX 201400 AAA
TAFAUS
TAF AMD
KAUS 201436Z 2015/2118 02006KT 4SM -DZ BR BKN009 OVC013
     FM201600 03005KT P6SM OVC015
     FM201900 02006KT P6SM OVC025
     FM210600 10003KT P6SM OVC015
     FM210900 VRB03KT 4SM BR OVC007
     FM211600 10003KT P6SM OVC012=



000
FTUS44 KEWX 201300 AAA
TAFSAT
TAF AMD
KSAT 201341Z 2014/2118 01008KT P6SM OVC011
     FM201700 05003KT P6SM OVC015
     FM202000 06003KT P6SM OVC025
     FM210600 VRB03KT 6SM BR OVC015
     FM211000 27003KT 4SM BR OVC007
     FM211600 10003KT P6SM OVC012=



000
FTUS44 KEWX 201100
TAFAUS
TAF
KAUS 201140Z 2012/2118 01008KT P6SM OVC012
     FM201600 03005KT P6SM OVC015
     FM201900 02006KT P6SM OVC025
     FM210600 10003KT P6SM OVC015
     FM210900 VRB03KT 4SM BR OVC007
     FM211600 10003KT P6SM OVC012=



000
FTUS44 KEWX 201100
TAFSAT
TAF
KSAT 201140Z 2012/2118 01009KT P6SM OVC011
     FM201300 01008KT P6SM OVC008
     FM201700 05003KT P6SM OVC015
     FM202000 06003KT P6SM OVC025
     FM210600 VRB03KT 6SM BR OVC015
     FM211000 27003KT 4SM BR OVC007
     FM211600 10003KT P6SM OVC012=



000
FTUS44 KEWX 201100
TAFDRT
TAF
KDRT 201140Z 2012/2112 14005KT P6SM BKN015
     FM201700 12005KT P6SM BKN025 OVC040
     FM202000 15008KT P6SM OVC050
     FM210500 11006KT P6SM OVC025
     FM210900 11005KT P6SM OVC015=



000
FTUS44 KEWX 200900 AAA
TAFDRT
TAF AMD
KDRT 200923Z 2009/2106 07005KT P6SM OVC015
     FM201300 11003KT 6SM BR OVC007
     FM202000 12005KT P6SM BKN015 OVC025=



000
FTUS44 KEWX 200900 AAA
TAFAUS
TAF AMD
KAUS 200919Z 2009/2112 01009KT P6SM OVC015
     FM201100 01005KT 6SM BR OVC008
     FM201600 03005KT P6SM OVC015
     FM210500 VRB03KT 2SM BR OVC007=



000
FTUS44 KEWX 200500
TAFDRT
TAF
KDRT 200540Z 2006/2106 07005KT P6SM BKN028 BKN060
     FM201300 11003KT 4SM BR OVC007
     FM202000 12005KT P6SM BKN015 OVC025=



000
FTUS44 KEWX 200500
TAFAUS
TAF
KAUS 200540Z 2006/2112 01013KT P6SM OVC013
     FM200900 01009KT 6SM BR OVC008
     FM201100 01005KT 4SM BR OVC005
     FM201600 03005KT 6SM BR OVC015
     FM210500 VRB03KT 2SM BR OVC007=



000
FTUS44 KEWX 200500
TAFSAT
TAF
KSAT 200540Z 2006/2112 02011KT P6SM OVC016
     FM200800 01009KT P6SM OVC009
     FM201300 01008KT 5SM BR OVC005
     FM201700 05003KT 6SM BR OVC007
     FM202000 06003KT P6SM OVC020
     FM210600 VRB03KT 3SM BR OVC007=



000
FTUS44 KEWX 200500 AAB
TAFSAT
TAF AMD
KSAT 200502Z 2005/2106 01010KT P6SM OVC013
     FM200700 01009KT P6SM OVC009
     FM201000 36005KT 6SM BR OVC005
     FM201400 36005KT 5SM BR OVC007
     FM201900 02006KT P6SM OVC025=



000
FTUS44 KEWX 200200 AAA
TAFSAT
TAF AMD
KSAT 200217Z 2002/2106 02007KT P6SM BKN018
     FM200600 01007KT 5SM BR OVC007
     FM201000 36005KT 2SM BR OVC003
     FM201600 36005KT 6SM BR OVC010
     FM201900 02006KT P6SM OVC025=



000
FTUS44 KEWX 192300
TAFAUS
TAF
KAUS 192332Z 2000/2106 01011KT P6SM OVC018
     FM200400 01007KT 6SM BR OVC012
     FM200800 01005KT 2SM BR OVC007
     FM201100 36005KT 1SM BR OVC005
     FM201600 02005KT 5SM BR OVC012
     FM201800 03007KT P6SM OVC018=



000
FTUS44 KEWX 192300
TAFDRT
TAF
KDRT 192332Z 2000/2024 34008KT P6SM FEW030
     FM200500 04003KT P6SM OVC025
     FM201300 11003KT 4SM BR OVC007
     FM201900 12005KT P6SM BKN015 OVC025=



000
FTUS44 KEWX 192300
TAFSAT
TAF
KSAT 192332Z 2000/2106 35012KT P6SM FEW028
      TEMPO 2001/2003 BKN022
     FM200300 02008KT P6SM OVC015
     FM200600 01007KT 5SM BR OVC007
     FM201000 36005KT 2SM BR OVC003
     FM201600 36005KT 6SM BR OVC010
     FM201900 02006KT P6SM OVC025=



000
FTUS44 KEWX 192100 AAA
TAFDRT
TAF AMD
KDRT 192156Z 1922/2018 32008KT P6SM SCT035
     FM200400 04004KT P6SM OVC030
     FM201000 07003KT P6SM OVC025
     FM201400 12005KT P6SM BKN015 OVC025=



000
FTUS44 KEWX 192000 AAA
TAFSAT
TAF AMD
KSAT 192056Z 1921/2024 03011KT P6SM SCT025 SCT040
      TEMPO 1923/2003 BKN025
     FM200300 02008KT P6SM OVC015
     FM200600 01007KT 5SM BR OVC007
     FM201000 36005KT 2SM BR OVC003
     FM201600 36005KT 5SM BR OVC012
     FM201800 02006KT P6SM OVC015=



000
FTUS44 KEWX 191700
TAFDRT
TAF
KDRT 191739Z 1918/2018 34008KT P6SM SCT020 BKN035
      TEMPO 1918/1920 BKN020
     FM192000 32006KT P6SM BKN035 BKN250
     FM200400 04004KT P6SM OVC030
     FM201000 07003KT P6SM OVC025
     FM201400 12005KT P6SM BKN015 OVC025=



000
FTUS44 KEWX 191700
TAFAUS
TAF
KAUS 191739Z 1918/2024 02012KT P6SM BKN015 OVC050
     FM200400 01007KT 6SM BR OVC012
     FM200800 01005KT 2SM BR OVC007
     FM201100 36005KT 1SM BR OVC005
     FM201600 02005KT 5SM BR OVC012
     FM201800 03007KT P6SM OVC015=



000
FTUS44 KEWX 191700
TAFSAT
TAF
KSAT 191739Z 1918/2024 03012G20KT P6SM SCT015 BKN040
      TEMPO 1918/1920 BKN015
     FM192100 03010KT P6SM BKN020
     FM200300 02008KT 6SM BR OVC015
     FM200600 01007KT 5SM BR OVC007
     FM201000 36005KT 2SM BR OVC003
     FM201600 36005KT 5SM BR OVC012
     FM201800 02006KT P6SM OVC015=



000
FTUS44 KEWX 191500 AAA
TAFAUS
TAF AMD
KAUS 191532Z 1916/2018 03012KT P6SM SCT010 OVC040
      TEMPO 1916/1918 BKN010
     FM191800 01011KT P6SM BKN015 OVC045
     FM200400 01007KT 5SM BR OVC012
     FM200800 36005KT 2SM BR OVC007
     FM201100 36005KT 1SM BR OVC005
     FM201600 36005KT 5SM BR OVC012=



000
FTUS44 KEWX 191400 AAA
TAFDRT
TAF AMD
KDRT 191405Z 1914/2012 32004KT P6SM BKN020 OVC040
     FM191530 31006KT P6SM BKN010 OVC035
     FM191700 31006KT P6SM BKN015 OVC035
     FM191900 32007KT P6SM BKN025
     FM192100 32006KT P6SM BKN035 BKN250
     FM200400 05004KT P6SM BKN030 BKN250
     FM201000 05003KT P6SM OVC025=



000
FTUS44 KEWX 191100
TAFDRT
TAF
KDRT 191138Z 1912/2012 32004KT P6SM OVC004
     FM191700 31006KT P6SM OVC012
     FM191900 32007KT P6SM BKN018
     FM192100 32006KT P6SM BKN035 BKN250
     FM200400 05004KT P6SM BKN030 BKN250
     FM201000 05003KT P6SM OVC025=



000
FTUS44 KEWX 191100
TAFAUS
TAF
KAUS 191138Z 1912/2018 01010KT 2SM -SHRA BR OVC008
     FM191300 01010KT 5SM BR VCSH OVC007
     FM191800 01011KT P6SM OVC015
     FM200400 01007KT 5SM BR OVC012
     FM200800 36005KT 2SM BR OVC007
     FM201100 36005KT 1SM BR OVC005
     FM201600 36005KT 5SM BR OVC012=



000
FTUS44 KEWX 191100
TAFSAT
TAF
KSAT 191138Z 1912/2018 01008KT 5SM -DZ BR OVC007
     FM191400 02010KT 6SM BR VCSH OVC007
     FM191800 02008KT P6SM OVC015
     FM192100 36008KT P6SM OVC025
     FM200600 01007KT 5SM BR OVC007
     FM201000 36005KT 2SM BR OVC003
     FM201600 36005KT 5SM BR OVC012=



000
FTUS44 KEWX 191000 AAA
TAFSAT
TAF AMD
KSAT 191017Z 1910/2012 02007KT 5SM -SHRA BR OVC007
     FM191600 02010KT P6SM VCSH OVC007
     FM191900 02008KT P6SM OVC015
     FM200500 01007KT 5SM BR OVC007=



000
FTUS44 KEWX 191000 AAA
TAFSAT
TAF AMD
KSAT 191017Z 1910/2012 02007KT 5SM -SHRA BR OVC007
     FM191600 02010KT P6SM VCSH OVC007
     FM191900 02008KT P6SM OVC015
     FM200500 01007KT 5SM BR OVC007=



    US Dept of Commerce
    National Oceanic and Atmospheric Administration
    National Weather Service
    1325 East West Highway
    Silver Spring, MD 20910
    Page Author: NWS Internet Services Team
Disclaimer
Information Quality
Credits
Glossary
Privacy Policy
Freedom of Information Act (FOIA)
About Us
Career Opportunities